createdAt,value
2023-05-19T00:00:48.121Z,1025.14
2023-05-19T00:01:52.340Z,1025.13
2023-05-19T00:02:58.507Z,1025.13
2023-05-19T00:04:04.451Z,1025.13
2023-05-19T00:05:10.557Z,1025.12
2023-05-19T00:06:16.850Z,1025.08
2023-05-19T00:07:22.820Z,1025.08
2023-05-19T00:08:28.912Z,1025.13
2023-05-19T00:09:35.013Z,1025.09
2023-05-19T00:10:41.089Z,1025.08
2023-05-19T00:11:47.202Z,1025.09
2023-05-19T00:12:53.955Z,1025.08
2023-05-19T00:13:59.390Z,1025.1
2023-05-19T00:15:05.467Z,1025.08
2023-05-19T00:16:11.590Z,1025.04
2023-05-19T00:17:17.703Z,1025.08
2023-05-19T00:18:23.783Z,1025.06
2023-05-19T00:19:29.902Z,1025.07
2023-05-19T00:20:36.025Z,1025.08
2023-05-19T00:21:42.037Z,1025.11
2023-05-19T00:22:48.072Z,1025.09
2023-05-19T00:23:54.284Z,1025.08
2023-05-19T00:25:00.273Z,1025.1
2023-05-19T00:26:06.420Z,1025.07
2023-05-19T00:27:12.516Z,1025.09
2023-05-19T00:28:18.603Z,1025.12
2023-05-19T00:29:24.728Z,1025.09
2023-05-19T00:30:31.081Z,1025.08
2023-05-19T00:31:36.918Z,1025.07
2023-05-19T00:32:43.165Z,1025.07
2023-05-19T00:33:49.092Z,1025.06
2023-05-19T00:34:55.200Z,1025.03
2023-05-19T00:36:01.213Z,1025.03
2023-05-19T00:37:07.323Z,1025.04
2023-05-19T00:38:13.490Z,1025.04
2023-05-19T00:39:19.579Z,1025.06
2023-05-19T00:40:25.658Z,1025.04
2023-05-19T00:41:31.764Z,1025.05
2023-05-19T00:42:37.840Z,1025.03
2023-05-19T00:43:43.914Z,1025.08
2023-05-19T00:44:50.033Z,1025
2023-05-19T00:45:56.140Z,1025.05
2023-05-19T00:47:02.600Z,1025.04
2023-05-19T00:48:08.379Z,1025.02
2023-05-19T00:49:14.345Z,1025.07
2023-05-19T00:50:20.504Z,1025.03
2023-05-19T00:51:26.625Z,1025.06
2023-05-19T00:52:32.694Z,1025.07
2023-05-19T00:53:38.772Z,1025.05
2023-05-19T00:54:44.906Z,1025.03
2023-05-19T00:55:50.974Z,1025.07
2023-05-19T00:56:57.085Z,1025.05
2023-05-19T00:58:03.073Z,1025.07
2023-05-19T00:59:09.256Z,1025.03
2023-05-19T01:00:15.272Z,1025
2023-05-19T01:01:21.596Z,1025.02
2023-05-19T01:02:27.609Z,1025
2023-05-19T01:03:33.714Z,1025.02
2023-05-19T01:04:39.735Z,1025.03
2023-05-19T01:05:45.835Z,1025.04
2023-05-19T01:06:51.847Z,1025.01
2023-05-19T01:07:58.031Z,1025.04
2023-05-19T01:09:04.121Z,1025.02
2023-05-19T01:10:10.216Z,1025.02
2023-05-19T01:11:16.296Z,1025.05
2023-05-19T01:12:22.402Z,1025.07
2023-05-19T01:13:28.539Z,1025.01
2023-05-19T01:14:34.583Z,1025.01
2023-05-19T01:15:40.669Z,1025.01
2023-05-19T01:16:46.876Z,1025.04
2023-05-19T01:17:52.821Z,1025.02
2023-05-19T01:18:58.999Z,1025.03
2023-05-19T01:20:04.981Z,1025.03
2023-05-19T01:21:11.188Z,1025.01
2023-05-19T01:22:17.257Z,1025
2023-05-19T01:23:23.346Z,1024.96
2023-05-19T01:24:29.437Z,1024.99
2023-05-19T01:25:35.546Z,1025
2023-05-19T01:26:41.641Z,1025.03
2023-05-19T01:27:47.725Z,1025.02
2023-05-19T01:28:53.884Z,1025.03
2023-05-19T01:29:59.906Z,1025.04
2023-05-19T01:32:12.117Z,1025.09
2023-05-19T01:33:18.181Z,1025.03
2023-05-19T01:34:24.300Z,1025.01
2023-05-19T01:35:30.426Z,1025.04
2023-05-19T01:36:36.487Z,1025.05
2023-05-19T01:37:42.575Z,1025.03
2023-05-19T01:38:48.678Z,1025.05
2023-05-19T01:39:54.766Z,1025.04
2023-05-19T01:41:00.845Z,1025.04
2023-05-19T01:42:06.951Z,1025.05
2023-05-19T01:43:13.036Z,1025.02
2023-05-19T01:44:19.145Z,1025.06
2023-05-19T01:45:25.230Z,1025.02
2023-05-19T01:46:31.448Z,1025.02
2023-05-19T01:47:37.470Z,1025.04
2023-05-19T01:48:43.518Z,1025.04
2023-05-19T01:49:49.622Z,1025.06
2023-05-19T01:50:55.717Z,1025.08
2023-05-19T01:52:01.801Z,1025.06
2023-05-19T01:53:07.929Z,1025.05
2023-05-19T01:54:13.918Z,1025.07
2023-05-19T01:55:20.001Z,1025.06
2023-05-19T01:56:26.189Z,1025.07
2023-05-19T01:57:32.285Z,1025.06
2023-05-19T01:58:38.384Z,1025.05
2023-05-19T01:59:44.468Z,1025.08
2023-05-19T02:00:50.586Z,1025.09
2023-05-19T02:01:56.571Z,1025.04
2023-05-19T02:03:02.777Z,1025.08
2023-05-19T02:04:08.890Z,1025.09
2023-05-19T02:05:14.916Z,1025.08
2023-05-19T02:06:21.042Z,1025.04
2023-05-19T02:07:27.140Z,1025.07
2023-05-19T02:08:33.265Z,1025.05
2023-05-19T02:09:39.328Z,1025.09
2023-05-19T02:10:45.421Z,1025.09
2023-05-19T02:11:51.513Z,1025.08
2023-05-19T02:12:57.609Z,1025.1
2023-05-19T02:14:03.617Z,1025.08
2023-05-19T02:15:09.718Z,1025.1
2023-05-19T02:16:15.964Z,1025.09
2023-05-19T02:17:22.039Z,1025.05
2023-05-19T02:18:28.100Z,1025.08
2023-05-19T02:19:34.177Z,1025.08
2023-05-19T02:20:40.267Z,1025.06
2023-05-19T02:21:46.353Z,1025.05
2023-05-19T02:22:52.442Z,1025.03
2023-05-19T02:23:58.537Z,1025.02
2023-05-19T02:25:04.691Z,1025.02
2023-05-19T02:26:10.743Z,1025.01
2023-05-19T02:27:16.758Z,1025.03
2023-05-19T02:28:22.928Z,1025.01
2023-05-19T02:29:29.005Z,1025.02
2023-05-19T02:30:35.204Z,1024.99
2023-05-19T02:31:41.247Z,1025
2023-05-19T02:32:47.373Z,1024.99
2023-05-19T02:33:53.402Z,1024.98
2023-05-19T02:34:59.496Z,1024.96
2023-05-19T02:36:05.579Z,1024.96
2023-05-19T02:37:11.690Z,1024.98
2023-05-19T02:38:17.690Z,1025
2023-05-19T02:39:23.873Z,1025
2023-05-19T02:40:30.126Z,1024.97
2023-05-19T02:41:36.086Z,1024.98
2023-05-19T02:42:42.185Z,1024.99
2023-05-19T02:43:48.238Z,1024.97
2023-05-19T02:44:54.339Z,1024.98
2023-05-19T02:46:00.536Z,1025
2023-05-19T02:47:06.562Z,1024.98
2023-05-19T02:48:12.698Z,1024.95
2023-05-19T02:49:18.729Z,1024.94
2023-05-19T02:50:24.813Z,1024.99
2023-05-19T02:51:30.936Z,1024.94
2023-05-19T02:52:37.006Z,1024.94
2023-05-19T02:53:43.093Z,1024.94
2023-05-19T02:54:49.226Z,1024.95
2023-05-19T02:55:55.287Z,1024.93
2023-05-19T02:57:01.386Z,1024.92
2023-05-19T02:58:07.519Z,1024.94
2023-05-19T02:59:13.566Z,1024.94
2023-05-19T03:00:19.658Z,1024.92
2023-05-19T03:01:25.763Z,1024.9
2023-05-19T03:02:31.945Z,1024.92
2023-05-19T03:03:38.086Z,1024.92
2023-05-19T03:04:44.031Z,1024.94
2023-05-19T03:05:50.130Z,1024.9
2023-05-19T03:06:56.230Z,1024.88
2023-05-19T03:08:02.328Z,1024.9
2023-05-19T03:09:08.422Z,1024.93
2023-05-19T03:10:14.542Z,1024.92
2023-05-19T03:11:20.619Z,1024.98
2023-05-19T03:12:26.713Z,1024.96
2023-05-19T03:13:32.807Z,1024.92
2023-05-19T03:14:38.888Z,1024.93
2023-05-19T03:15:44.983Z,1024.88
2023-05-19T03:16:51.280Z,1024.92
2023-05-19T03:17:57.280Z,1024.94
2023-05-19T03:19:03.370Z,1024.93
2023-05-19T03:20:09.380Z,1024.95
2023-05-19T03:21:15.387Z,1024.91
2023-05-19T03:22:21.539Z,1024.92
2023-05-19T03:23:27.683Z,1024.92
2023-05-19T03:24:33.751Z,1024.94
2023-05-19T03:25:39.875Z,1024.94
2023-05-19T03:26:45.937Z,1024.94
2023-05-19T03:27:52.045Z,1024.91
2023-05-19T03:29:04.193Z,1024.92
2023-05-19T03:30:10.381Z,1024.9
2023-05-19T03:31:16.465Z,1024.96
2023-05-19T03:32:22.620Z,1024.88
2023-05-19T03:33:28.702Z,1024.9
2023-05-19T03:34:34.748Z,1024.91
2023-05-19T03:35:40.835Z,1024.89
2023-05-19T03:36:46.929Z,1024.89
2023-05-19T03:37:53.043Z,1024.9
2023-05-19T03:38:59.152Z,1024.86
2023-05-19T03:40:05.164Z,1024.89
2023-05-19T03:41:11.238Z,1024.86
2023-05-19T03:42:17.423Z,1024.9
2023-05-19T03:43:23.509Z,1024.89
2023-05-19T03:44:29.604Z,1024.87
2023-05-19T03:45:35.703Z,1024.88
2023-05-19T03:46:41.823Z,1024.84
2023-05-19T03:47:47.955Z,1024.79
2023-05-19T03:48:53.902Z,1024.78
2023-05-19T03:50:00.129Z,1024.77
2023-05-19T03:51:06.183Z,1024.77
2023-05-19T03:52:12.256Z,1024.8
2023-05-19T03:53:18.344Z,1024.8
2023-05-19T03:54:24.449Z,1024.81
2023-05-19T03:55:30.595Z,1024.84
2023-05-19T03:56:36.631Z,1024.83
2023-05-19T03:57:42.721Z,1024.82
2023-05-19T03:58:48.847Z,1024.86
2023-05-19T03:59:54.911Z,1024.92
2023-05-19T04:01:01.000Z,1024.86
2023-05-19T04:02:08.262Z,1024.86
2023-05-19T04:03:13.269Z,1024.88
2023-05-19T04:04:19.331Z,1024.92
2023-05-19T04:05:25.383Z,1024.89
2023-05-19T04:06:31.538Z,1024.9
2023-05-19T04:07:37.583Z,1024.87
2023-05-19T04:08:43.689Z,1024.87
2023-05-19T04:09:49.790Z,1024.87
2023-05-19T04:10:55.801Z,1024.86
2023-05-19T04:12:01.887Z,1024.83
2023-05-19T04:13:08.054Z,1024.83
2023-05-19T04:14:14.087Z,1024.83
2023-05-19T04:15:20.236Z,1024.83
2023-05-19T04:16:26.454Z,1024.85
2023-05-19T04:17:32.509Z,1024.87
2023-05-19T04:18:38.586Z,1024.85
2023-05-19T04:19:44.626Z,1024.9
2023-05-19T04:20:50.722Z,1024.9
2023-05-19T04:21:56.834Z,1024.9
2023-05-19T04:23:02.829Z,1024.89
2023-05-19T04:24:08.924Z,1024.91
2023-05-19T04:25:15.161Z,1024.97
2023-05-19T04:26:21.197Z,1024.91
2023-05-19T04:27:27.284Z,1024.9
2023-05-19T04:28:33.364Z,1024.95
2023-05-19T04:29:39.484Z,1024.96
2023-05-19T04:30:45.679Z,1024.96
2023-05-19T04:31:51.660Z,1024.93
2023-05-19T04:32:57.780Z,1024.91
2023-05-19T04:34:03.872Z,1024.93
2023-05-19T04:35:09.959Z,1024.95
2023-05-19T04:36:16.028Z,1024.95
2023-05-19T04:37:22.142Z,1024.93
2023-05-19T04:38:28.230Z,1025
2023-05-19T04:39:34.339Z,1024.97
2023-05-19T04:40:40.426Z,1024.97
2023-05-19T04:41:46.529Z,1024.97
2023-05-19T04:42:52.653Z,1024.97
2023-05-19T04:43:58.728Z,1024.99
2023-05-19T04:45:04.732Z,1025
2023-05-19T04:46:12.493Z,1024.99
2023-05-19T04:47:16.973Z,1024.97
2023-05-19T04:48:23.125Z,1024.96
2023-05-19T04:49:29.192Z,1024.97
2023-05-19T04:50:35.430Z,1024.94
2023-05-19T04:51:41.425Z,1024.92
2023-05-19T04:52:47.482Z,1024.95
2023-05-19T04:53:53.714Z,1024.97
2023-05-19T04:54:59.636Z,1024.92
2023-05-19T04:56:05.769Z,1024.94
2023-05-19T04:57:11.837Z,1024.92
2023-05-19T04:58:17.928Z,1024.93
2023-05-19T04:59:24.022Z,1024.93
2023-05-19T05:00:30.171Z,1024.93
2023-05-19T05:01:36.243Z,1024.96
2023-05-19T05:02:42.368Z,1024.93
2023-05-19T05:03:48.483Z,1024.93
2023-05-19T05:04:54.562Z,1024.96
2023-05-19T05:06:00.605Z,1024.93
2023-05-19T05:07:06.694Z,1024.95
2023-05-19T05:08:12.697Z,1024.92
2023-05-19T05:09:18.862Z,1024.97
2023-05-19T05:10:24.985Z,1024.92
2023-05-19T05:11:31.081Z,1024.92
2023-05-19T05:12:37.158Z,1024.96
2023-05-19T05:13:43.277Z,1024.97
2023-05-19T05:14:49.342Z,1024.98
2023-05-19T05:15:55.453Z,1024.99
2023-05-19T05:17:01.556Z,1025.03
2023-05-19T05:18:07.721Z,1025.03
2023-05-19T05:19:13.766Z,1025.06
2023-05-19T05:20:19.752Z,1025.08
2023-05-19T05:21:25.903Z,1025.1
2023-05-19T05:22:32.008Z,1025.11
2023-05-19T05:23:38.094Z,1025.06
2023-05-19T05:24:44.249Z,1025.11
2023-05-19T05:25:50.287Z,1025.1
2023-05-19T05:26:56.390Z,1025.05
2023-05-19T05:28:02.488Z,1025.02
2023-05-19T05:29:08.557Z,1025.02
2023-05-19T05:30:14.694Z,1025.03
2023-05-19T05:31:20.779Z,1025.01
2023-05-19T05:32:26.838Z,1025.01
2023-05-19T05:33:33.020Z,1025
2023-05-19T05:34:39.039Z,1025
2023-05-19T05:35:45.140Z,1024.98
2023-05-19T05:36:51.230Z,1024.96
2023-05-19T05:37:57.316Z,1024.98
2023-05-19T05:39:03.442Z,1024.99
2023-05-19T05:40:09.539Z,1025
2023-05-19T05:41:15.531Z,1025
2023-05-19T05:42:21.720Z,1025.02
2023-05-19T05:43:27.806Z,1025.06
2023-05-19T05:44:33.902Z,1025.03
2023-05-19T05:45:40.079Z,1025.07
2023-05-19T05:46:46.112Z,1025.06
2023-05-19T05:47:52.252Z,1025.05
2023-05-19T05:48:58.316Z,1025
2023-05-19T05:50:04.384Z,1024.99
2023-05-19T05:51:10.474Z,1024.97
2023-05-19T05:52:16.517Z,1024.97
2023-05-19T05:53:22.663Z,1024.98
2023-05-19T05:54:28.755Z,1024.96
2023-05-19T05:55:35.186Z,1025.03
2023-05-19T05:56:40.938Z,1024.97
2023-05-19T05:57:47.024Z,1024.94
2023-05-19T05:58:53.135Z,1024.94
2023-05-19T05:59:59.232Z,1024.95
2023-05-19T06:01:05.411Z,1025
2023-05-19T06:02:11.496Z,1024.94
2023-05-19T06:03:17.651Z,1024.94
2023-05-19T06:04:23.623Z,1025.01
2023-05-19T06:05:29.702Z,1024.98
2023-05-19T06:06:35.788Z,1024.98
2023-05-19T06:07:41.893Z,1024.91
2023-05-19T06:08:47.986Z,1024.92
2023-05-19T06:09:54.070Z,1024.95
2023-05-19T06:11:00.164Z,1024.96
2023-05-19T06:12:06.262Z,1024.93
2023-05-19T06:13:12.290Z,1025
2023-05-19T06:14:18.464Z,1024.98
2023-05-19T06:15:24.552Z,1024.97
2023-05-19T06:16:30.744Z,1024.96
2023-05-19T06:17:36.768Z,1024.98
2023-05-19T06:18:42.889Z,1024.97
2023-05-19T06:19:48.929Z,1024.97
2023-05-19T06:20:55.024Z,1024.96
2023-05-19T06:22:01.115Z,1024.95
2023-05-19T06:23:07.223Z,1024.99
2023-05-19T06:24:13.301Z,1024.95
2023-05-19T06:25:19.321Z,1024.96
2023-05-19T06:26:25.494Z,1024.96
2023-05-19T06:27:32.643Z,1024.98
2023-05-19T06:28:37.684Z,1024.98
2023-05-19T06:29:43.781Z,1024.98
2023-05-19T06:30:49.875Z,1024.98
2023-05-19T06:31:56.022Z,1024.91
2023-05-19T06:33:02.148Z,1024.99
2023-05-19T06:34:08.149Z,1024.98
2023-05-19T06:35:14.238Z,1024.96
2023-05-19T06:36:20.343Z,1025.01
2023-05-19T06:37:26.450Z,1024.98
2023-05-19T06:38:32.685Z,1024.99
2023-05-19T06:39:38.611Z,1024.98
2023-05-19T06:40:44.740Z,1025
2023-05-19T06:41:50.812Z,1025
2023-05-19T06:42:56.896Z,1025
2023-05-19T06:44:02.993Z,1025
2023-05-19T06:45:09.122Z,1025.02
2023-05-19T06:46:15.213Z,1025
2023-05-19T06:47:21.307Z,1025.01
2023-05-19T06:48:27.403Z,1025
2023-05-19T06:49:33.503Z,1025.01
2023-05-19T06:50:39.620Z,1025
2023-05-19T06:51:45.707Z,1025.02
2023-05-19T06:52:51.780Z,1024.97
2023-05-19T06:53:57.878Z,1024.99
2023-05-19T06:55:03.970Z,1024.97
2023-05-19T06:56:10.053Z,1025.01
2023-05-19T06:57:16.154Z,1025
2023-05-19T06:58:22.226Z,1025.01
2023-05-19T06:59:28.363Z,1025.03
2023-05-19T07:00:34.603Z,1025.08
2023-05-19T07:01:40.567Z,1025.05
2023-05-19T07:02:46.711Z,1025.06
2023-05-19T07:03:52.858Z,1025.05
2023-05-19T07:04:58.805Z,1025.06
2023-05-19T07:06:07.113Z,1025.02
2023-05-19T07:07:11.012Z,1025.03
2023-05-19T07:08:17.099Z,1025.01
2023-05-19T07:09:29.341Z,1025.06
2023-05-19T07:10:35.553Z,1025.05
2023-05-19T07:11:41.524Z,1025.02
2023-05-19T07:12:47.627Z,1025
2023-05-19T07:13:53.748Z,1024.95
2023-05-19T07:14:59.846Z,1025
2023-05-19T07:16:05.954Z,1025.01
2023-05-19T07:17:11.987Z,1024.96
2023-05-19T07:18:18.100Z,1024.93
2023-05-19T07:19:24.300Z,1024.96
2023-05-19T07:20:30.489Z,1024.96
2023-05-19T07:21:36.376Z,1024.99
2023-05-19T07:22:42.467Z,1024.97
2023-05-19T07:23:48.559Z,1024.93
2023-05-19T07:24:54.596Z,1024.97
2023-05-19T07:26:00.778Z,1024.99
2023-05-19T07:27:06.846Z,1024.94
2023-05-19T07:28:12.955Z,1024.91
2023-05-19T07:29:19.045Z,1024.94
2023-05-19T07:30:25.122Z,1024.92
2023-05-19T07:31:31.279Z,1024.91
2023-05-19T07:32:37.358Z,1024.84
2023-05-19T07:33:43.405Z,1024.88
2023-05-19T07:34:49.514Z,1024.9
2023-05-19T07:35:55.598Z,1024.89
2023-05-19T07:37:01.690Z,1024.84
2023-05-19T07:38:07.709Z,1024.86
2023-05-19T07:39:13.960Z,1024.87
2023-05-19T07:40:19.999Z,1024.91
2023-05-19T07:41:26.125Z,1024.87
2023-05-19T07:42:32.174Z,1024.84
2023-05-19T07:43:38.273Z,1024.85
2023-05-19T07:44:44.372Z,1024.85
2023-05-19T07:45:50.507Z,1024.85
2023-05-19T07:46:56.551Z,1024.85
2023-05-19T07:48:02.664Z,1024.85
2023-05-19T07:49:08.750Z,1024.87
2023-05-19T07:50:14.857Z,1024.87
2023-05-19T07:51:20.958Z,1024.84
2023-05-19T07:52:27.100Z,1024.81
2023-05-19T07:53:33.134Z,1024.79
2023-05-19T07:54:39.205Z,1024.79
2023-05-19T07:55:45.312Z,1024.79
2023-05-19T07:56:51.417Z,1024.79
2023-05-19T07:57:57.498Z,1024.78
2023-05-19T07:59:03.617Z,1024.81
2023-05-19T08:00:09.711Z,1024.79
2023-05-19T08:01:15.782Z,1024.76
2023-05-19T08:02:21.849Z,1024.74
2023-05-19T08:03:28.118Z,1024.76
2023-05-19T08:04:34.112Z,1024.76
2023-05-19T08:05:40.156Z,1024.78
2023-05-19T08:06:46.249Z,1024.78
2023-05-19T08:07:52.348Z,1024.74
2023-05-19T08:08:58.425Z,1024.79
2023-05-19T08:10:04.541Z,1024.78
2023-05-19T08:11:10.555Z,1024.77
2023-05-19T08:12:16.770Z,1024.8
2023-05-19T08:13:22.808Z,1024.76
2023-05-19T08:14:28.913Z,1024.81
2023-05-19T08:15:35.025Z,1024.81
2023-05-19T08:16:41.103Z,1024.8
2023-05-19T08:17:47.229Z,1024.86
2023-05-19T08:18:53.320Z,1024.81
2023-05-19T08:19:59.389Z,1024.81
2023-05-19T08:21:05.389Z,1024.86
2023-05-19T08:22:11.500Z,1024.87
2023-05-19T08:23:17.665Z,1024.87
2023-05-19T08:24:23.781Z,1024.92
2023-05-19T08:25:29.847Z,1024.89
2023-05-19T08:26:37.639Z,1024.87
2023-05-19T08:27:42.049Z,1024.92
2023-05-19T08:28:48.168Z,1024.9
2023-05-19T08:29:54.244Z,1024.9
2023-05-19T08:31:00.395Z,1024.86
2023-05-19T08:32:06.354Z,1024.86
2023-05-19T08:33:12.486Z,1024.85
2023-05-19T08:34:18.539Z,1024.81
2023-05-19T08:35:24.728Z,1024.79
2023-05-19T08:36:30.812Z,1024.78
2023-05-19T08:37:36.923Z,1024.77
2023-05-19T08:38:42.992Z,1024.77
2023-05-19T08:39:49.080Z,1024.75
2023-05-19T08:40:55.173Z,1024.77
2023-05-19T08:42:01.283Z,1024.74
2023-05-19T08:43:07.366Z,1024.8
2023-05-19T08:44:13.493Z,1024.76
2023-05-19T08:45:19.555Z,1024.76
2023-05-19T08:46:25.704Z,1024.73
2023-05-19T08:47:31.751Z,1024.72
2023-05-19T08:48:37.846Z,1024.72
2023-05-19T08:49:43.951Z,1024.67
2023-05-19T08:50:50.033Z,1024.69
2023-05-19T08:51:56.123Z,1024.67
2023-05-19T08:53:02.235Z,1024.65
2023-05-19T08:54:08.307Z,1024.66
2023-05-19T08:55:14.401Z,1024.67
2023-05-19T08:56:20.516Z,1024.67
2023-05-19T08:57:26.527Z,1024.68
2023-05-19T08:58:32.704Z,1024.6
2023-05-19T08:59:38.795Z,1024.63
2023-05-19T09:00:44.903Z,1024.57
2023-05-19T09:01:51.002Z,1024.58
2023-05-19T09:03:05.906Z,1024.56
2023-05-19T09:04:03.365Z,1024.56
2023-05-19T09:05:09.431Z,1024.54
2023-05-19T09:06:15.360Z,1024.52
2023-05-19T09:07:21.469Z,1024.52
2023-05-19T09:08:27.470Z,1024.48
2023-05-19T09:09:33.638Z,1024.46
2023-05-19T09:10:39.752Z,1024.5
2023-05-19T09:11:45.842Z,1024.48
2023-05-19T09:12:51.929Z,1024.47
2023-05-19T09:13:58.020Z,1024.44
2023-05-19T09:15:04.119Z,1024.43
2023-05-19T09:16:10.151Z,1024.41
2023-05-19T09:17:16.209Z,1024.4
2023-05-19T09:18:22.441Z,1024.45
2023-05-19T09:19:28.636Z,1024.48
2023-05-19T09:20:34.581Z,1024.45
2023-05-19T09:21:40.680Z,1024.42
2023-05-19T09:22:46.776Z,1024.38
2023-05-19T09:23:52.868Z,1024.41
2023-05-19T09:24:58.986Z,1024.38
2023-05-19T09:26:05.074Z,1024.37
2023-05-19T09:27:11.158Z,1024.34
2023-05-19T09:28:17.284Z,1024.34
2023-05-19T09:29:23.340Z,1024.31
2023-05-19T09:30:29.427Z,1024.28
2023-05-19T09:31:35.539Z,1024.23
2023-05-19T09:32:41.674Z,1024.26
2023-05-19T09:33:47.716Z,1024.29
2023-05-19T09:34:53.815Z,1024.27
2023-05-19T09:35:59.935Z,1024.28
2023-05-19T09:38:12.102Z,1024.25
2023-05-19T09:39:18.109Z,1024.21
2023-05-19T09:40:24.290Z,1024.21
2023-05-19T09:41:30.398Z,1024.17
2023-05-19T09:42:36.478Z,1024.14
2023-05-19T09:43:42.572Z,1024.13
2023-05-19T09:44:48.672Z,1024.19
2023-05-19T09:45:54.820Z,1024.2
2023-05-19T09:47:00.855Z,1024.15
2023-05-19T09:48:07.004Z,1024.18
2023-05-19T09:49:13.023Z,1024.09
2023-05-19T09:50:19.140Z,1024.11
2023-05-19T09:51:25.166Z,1024.09
2023-05-19T09:52:31.264Z,1024.1
2023-05-19T09:53:37.419Z,1024.11
2023-05-19T09:54:44.337Z,1024.11
2023-05-19T09:55:49.618Z,1024.05
2023-05-19T09:56:55.712Z,1024.07
2023-05-19T09:58:01.819Z,1024.11
2023-05-19T09:59:07.912Z,1024.09
2023-05-19T10:00:13.992Z,1024.1
2023-05-19T10:01:20.181Z,1024.07
2023-05-19T10:02:26.227Z,1024.02
2023-05-19T10:03:32.265Z,1023.99
2023-05-19T10:04:38.388Z,1023.96
2023-05-19T10:05:44.480Z,1023.96
2023-05-19T10:06:50.559Z,1024.01
2023-05-19T10:07:56.649Z,1024.06
2023-05-19T10:09:02.747Z,1023.96
2023-05-19T10:10:08.821Z,1023.95
2023-05-19T10:11:14.933Z,1023.97
2023-05-19T10:12:21.032Z,1023.91
2023-05-19T10:13:27.123Z,1024
2023-05-19T10:14:33.279Z,1023.93
2023-05-19T10:15:50.021Z,1023.95
2023-05-19T10:16:45.449Z,1023.9
2023-05-19T10:17:51.575Z,1023.89
2023-05-19T10:18:57.609Z,1023.84
2023-05-19T10:20:03.688Z,1023.93
2023-05-19T10:21:09.836Z,1023.94
2023-05-19T10:22:15.911Z,1023.98
2023-05-19T10:23:21.914Z,1023.98
2023-05-19T10:24:28.015Z,1023.98
2023-05-19T10:25:34.384Z,1023.98
2023-05-19T10:26:40.274Z,1024
2023-05-19T10:27:46.368Z,1023.96
2023-05-19T10:28:52.455Z,1023.93
2023-05-19T10:29:58.581Z,1023.92
2023-05-19T10:31:04.653Z,1023.89
2023-05-19T10:32:10.801Z,1023.88
2023-05-19T10:33:16.876Z,1023.94
2023-05-19T10:34:22.929Z,1023.93
2023-05-19T10:35:29.039Z,1023.89
2023-05-19T10:36:35.048Z,1023.89
2023-05-19T10:37:41.233Z,1023.86
2023-05-19T10:38:47.293Z,1023.9
2023-05-19T10:39:53.448Z,1023.88
2023-05-19T10:40:59.499Z,1023.87
2023-05-19T10:42:05.584Z,1023.86
2023-05-19T10:43:11.685Z,1023.83
2023-05-19T10:44:17.755Z,1023.82
2023-05-19T10:45:23.862Z,1023.79
2023-05-19T10:46:30.012Z,1023.76
2023-05-19T10:47:36.034Z,1023.73
2023-05-19T10:48:42.091Z,1023.7
2023-05-19T10:49:54.380Z,1023.68
2023-05-19T10:51:00.480Z,1023.7
2023-05-19T10:52:06.579Z,1023.7
2023-05-19T10:53:12.600Z,1023.72
2023-05-19T10:54:18.768Z,1023.68
2023-05-19T10:55:24.783Z,1023.78
2023-05-19T10:56:30.957Z,1023.69
2023-05-19T10:57:37.087Z,1023.73
2023-05-19T10:58:43.148Z,1023.69
2023-05-19T10:59:49.243Z,1023.7
2023-05-19T11:00:55.349Z,1023.79
2023-05-19T11:02:01.393Z,1023.72
2023-05-19T11:03:07.717Z,1023.71
2023-05-19T11:04:13.707Z,1023.75
2023-05-19T11:05:19.722Z,1023.74
2023-05-19T11:06:25.816Z,1023.66
2023-05-19T11:07:31.931Z,1023.7
2023-05-19T11:08:38.008Z,1023.74
2023-05-19T11:09:44.102Z,1023.69
2023-05-19T11:10:50.196Z,1023.75
2023-05-19T11:11:56.303Z,1023.7
2023-05-19T11:13:02.308Z,1023.7
2023-05-19T11:14:08.480Z,1023.72
2023-05-19T11:15:14.591Z,1023.68
2023-05-19T11:16:20.697Z,1023.67
2023-05-19T11:17:26.781Z,1023.64
2023-05-19T11:18:32.861Z,1023.64
2023-05-19T11:19:38.968Z,1023.58
2023-05-19T11:20:45.056Z,1023.59
2023-05-19T11:21:51.162Z,1023.64
2023-05-19T11:22:57.337Z,1023.64
2023-05-19T11:24:03.391Z,1023.62
2023-05-19T11:25:09.468Z,1023.6
2023-05-19T11:26:15.446Z,1023.57
2023-05-19T11:27:21.539Z,1023.58
2023-05-19T11:28:27.756Z,1023.6
2023-05-19T11:29:34.868Z,1023.51
2023-05-19T11:30:39.909Z,1023.53
2023-05-19T11:31:46.055Z,1023.52
2023-05-19T11:32:52.116Z,1023.5
2023-05-19T11:33:58.187Z,1023.5
2023-05-19T11:35:04.411Z,1023.52
2023-05-19T11:36:10.379Z,1023.54
2023-05-19T11:37:16.505Z,1023.51
2023-05-19T11:38:22.491Z,1023.51
2023-05-19T11:39:28.663Z,1023.47
2023-05-19T11:40:34.767Z,1023.5
2023-05-19T11:41:40.849Z,1023.49
2023-05-19T11:42:47.016Z,1023.42
2023-05-19T11:43:53.058Z,1023.45
2023-05-19T11:44:59.126Z,1023.48
2023-05-19T11:46:05.294Z,1023.47
2023-05-19T11:47:11.335Z,1023.52
2023-05-19T11:48:17.553Z,1023.53
2023-05-19T11:49:23.508Z,1023.55
2023-05-19T11:50:29.600Z,1023.52
2023-05-19T11:51:35.719Z,1023.49
2023-05-19T11:52:41.788Z,1023.49
2023-05-19T11:53:47.876Z,1023.49
2023-05-19T11:54:53.995Z,1023.48
2023-05-19T11:56:00.084Z,1023.47
2023-05-19T11:57:06.178Z,1023.48
2023-05-19T11:58:12.299Z,1023.51
2023-05-19T11:59:18.362Z,1023.51
